createdAt,value
2018-05-21T00:00:00.224Z,12.30
2018-05-21T00:00:31.559Z,8.75
2018-05-21T00:01:02.943Z,9.35
2018-05-21T00:01:34.295Z,10.77
2018-05-21T00:02:05.643Z,10.60
2018-05-21T00:02:37.007Z,9.48
2018-05-21T00:03:08.351Z,12.07
2018-05-21T00:03:40.467Z,7.78
2018-05-21T00:04:11.890Z,8.43
2018-05-21T00:04:43.183Z,10.98
2018-05-21T00:05:14.571Z,8.20
2018-05-21T00:05:45.904Z,7.00
2018-05-21T00:06:17.243Z,6.12
2018-05-21T00:06:48.572Z,6.68
2018-05-21T00:07:19.919Z,8.05
2018-05-21T00:07:51.264Z,5.90
2018-05-21T00:08:22.615Z,12.77
2018-05-21T00:08:53.979Z,7.90
2018-05-21T00:09:25.321Z,10.18
2018-05-21T00:09:56.694Z,7.37
2018-05-21T00:10:28.059Z,7.03
2018-05-21T00:10:59.427Z,6.87
2018-05-21T00:11:30.770Z,6.47
2018-05-21T00:12:02.116Z,4.85
2018-05-21T00:12:33.456Z,6.75
2018-05-21T00:13:04.803Z,4.75
2018-05-21T00:13:36.883Z,7.15
2018-05-21T00:14:08.223Z,8.10
2018-05-21T00:14:39.560Z,6.90
2018-05-21T00:15:10.899Z,8.20
2018-05-21T00:15:42.363Z,8.05
2018-05-21T00:16:13.703Z,5.57
2018-05-21T00:16:45.041Z,9.90
2018-05-21T00:17:16.417Z,5.90
2018-05-21T00:17:48.537Z,5.30
2018-05-21T00:18:19.891Z,8.05
2018-05-21T00:18:51.232Z,5.97
2018-05-21T00:19:22.571Z,6.75
2018-05-21T00:19:53.907Z,6.22
2018-05-21T00:20:25.251Z,4.45
2018-05-21T00:20:57.379Z,6.03
2018-05-21T00:21:28.708Z,9.32
2018-05-21T00:22:00.040Z,7.22
2018-05-21T00:22:31.371Z,9.88
2018-05-21T00:23:02.728Z,6.43
2018-05-21T00:23:34.059Z,11.77
2018-05-21T00:24:05.403Z,9.00
2018-05-21T00:24:36.748Z,12.13
2018-05-21T00:25:08.100Z,9.20
2018-05-21T00:25:40.202Z,10.65
2018-05-21T00:26:11.567Z,10.98
2018-05-21T00:26:42.914Z,9.60
2018-05-21T00:27:14.258Z,17.92
2018-05-21T00:27:45.602Z,8.95
2018-05-21T00:28:16.936Z,8.45
2018-05-21T00:28:48.279Z,10.43
2018-05-21T00:29:19.618Z,6.95
2018-05-21T00:29:51.703Z,9.00
2018-05-21T00:30:23.327Z,6.87
2018-05-21T00:30:55.419Z,8.52
2018-05-21T00:31:26.791Z,7.60
2018-05-21T00:31:58.135Z,5.82
2018-05-21T00:32:29.468Z,13.10
2018-05-21T00:33:00.833Z,6.22
2018-05-21T00:33:32.926Z,6.95
2018-05-21T00:34:04.255Z,8.98
2018-05-21T00:34:35.620Z,8.57
2018-05-21T00:35:06.972Z,9.20
2018-05-21T00:35:38.304Z,7.68
2018-05-21T00:36:09.631Z,8.23
2018-05-21T00:36:40.998Z,7.03
2018-05-21T00:37:12.330Z,8.15
2018-05-21T00:37:43.664Z,8.10
2018-05-21T00:38:15.770Z,7.15
2018-05-21T00:38:47.111Z,9.35
2018-05-21T00:39:18.475Z,9.32
2018-05-21T00:39:49.813Z,11.10
2018-05-21T00:40:21.151Z,6.43
2018-05-21T00:40:52.479Z,8.50
2018-05-21T00:41:23.839Z,7.70
2018-05-21T00:41:55.214Z,9.90
2018-05-21T00:42:27.282Z,7.40
2018-05-21T00:42:58.648Z,9.82
2018-05-21T00:43:29.980Z,5.12
2018-05-21T00:44:01.335Z,9.20
2018-05-21T00:44:32.698Z,6.28
2018-05-21T00:45:04.075Z,10.10
2018-05-21T00:45:35.417Z,7.43
2018-05-21T00:46:06.759Z,4.90
2018-05-21T00:46:38.103Z,9.43
2018-05-21T00:47:09.472Z,7.78
2018-05-21T00:47:40.807Z,8.02
2018-05-21T00:48:13.651Z,7.53
2018-05-21T00:48:44.993Z,6.65
2018-05-21T00:49:16.355Z,14.00
2018-05-21T00:49:47.683Z,6.53
2018-05-21T00:50:19.085Z,5.07
2018-05-21T00:50:51.135Z,8.10
2018-05-21T00:51:22.467Z,8.40
2018-05-21T00:51:53.827Z,6.32
2018-05-21T00:52:25.269Z,8.15
2018-05-21T00:52:56.587Z,9.55
2018-05-21T00:53:27.923Z,8.20
2018-05-21T00:53:59.260Z,7.57
2018-05-21T00:54:30.595Z,10.48
2018-05-21T00:55:14.191Z,11.57
2018-05-21T00:55:45.487Z,6.75
2018-05-21T00:56:16.823Z,14.02
2018-05-21T00:56:48.172Z,11.20
2018-05-21T00:57:19.515Z,10.65
2018-05-21T00:57:50.883Z,9.65
2018-05-21T00:58:22.971Z,9.52
2018-05-21T00:58:54.323Z,18.30
2018-05-21T00:59:25.654Z,9.98
2018-05-21T00:59:56.991Z,11.98
2018-05-21T01:00:28.335Z,11.48
2018-05-21T01:00:59.679Z,11.30
2018-05-21T01:01:31.011Z,13.50
2018-05-21T01:02:02.383Z,9.27
2018-05-21T01:02:34.479Z,8.68
2018-05-21T01:03:05.843Z,9.70
2018-05-21T01:03:37.182Z,6.85
2018-05-21T01:04:10.027Z,8.43
2018-05-21T01:04:41.397Z,6.57
2018-05-21T01:05:12.734Z,9.60
2018-05-21T01:05:44.072Z,7.70
2018-05-21T01:06:15.400Z,7.95
2018-05-21T01:06:46.735Z,5.43
2018-05-21T01:07:18.096Z,13.88
2018-05-21T01:07:49.484Z,6.65
2018-05-21T01:08:20.849Z,7.45
2018-05-21T01:08:52.190Z,7.37
2018-05-21T01:09:23.528Z,7.62
2018-05-21T01:09:54.891Z,9.15
2018-05-21T01:10:26.239Z,7.07
2018-05-21T01:10:57.607Z,8.90
2018-05-21T01:11:28.939Z,6.35
2018-05-21T01:12:00.270Z,4.65
2018-05-21T01:12:31.619Z,6.62
2018-05-21T01:13:02.987Z,8.40
2018-05-21T01:13:34.375Z,4.55
2018-05-21T01:14:06.460Z,6.00
2018-05-21T01:14:37.789Z,7.10
2018-05-21T01:15:09.123Z,9.30
2018-05-21T01:15:40.510Z,6.25
2018-05-21T01:16:11.827Z,11.07
2018-05-21T01:16:43.170Z,5.20
2018-05-21T01:17:14.527Z,5.22
2018-05-21T01:17:45.867Z,6.90
2018-05-21T01:18:17.971Z,4.85
2018-05-21T01:18:49.347Z,5.60
2018-05-21T01:19:20.692Z,7.15
2018-05-21T01:19:52.874Z,8.27
2018-05-21T01:20:24.952Z,8.07
2018-05-21T01:20:56.298Z,5.90
2018-05-21T01:21:27.619Z,6.87
2018-05-21T01:21:58.962Z,6.80
2018-05-21T01:22:30.369Z,5.90
2018-05-21T01:23:02.463Z,7.65
2018-05-21T01:23:33.807Z,5.82
2018-05-21T01:24:05.167Z,5.85
2018-05-21T01:24:36.503Z,7.53
2018-05-21T01:25:07.835Z,6.32
2018-05-21T01:25:39.178Z,5.15
2018-05-21T01:26:10.549Z,10.40
2018-05-21T01:26:42.643Z,5.40
2018-05-21T01:27:13.979Z,4.35
2018-05-21T01:27:45.338Z,8.18
2018-05-21T01:28:16.695Z,5.40
2018-05-21T01:28:48.043Z,4.70
2018-05-21T01:29:19.403Z,7.43
2018-05-21T01:29:51.479Z,8.23
2018-05-21T01:30:22.819Z,5.40
2018-05-21T01:30:54.180Z,7.10
2018-05-21T01:31:25.524Z,5.00
2018-05-21T01:31:56.868Z,5.78
2018-05-21T01:32:28.223Z,7.20
2018-05-21T01:33:00.327Z,6.95
2018-05-21T01:33:31.659Z,8.00
2018-05-21T01:34:02.999Z,7.12
2018-05-21T01:34:34.360Z,11.60
2018-05-21T01:35:05.727Z,12.10
2018-05-21T01:35:37.058Z,17.15
2018-05-21T01:36:08.400Z,15.43
2018-05-21T01:36:39.743Z,16.37
2018-05-21T01:37:11.111Z,26.50
2018-05-21T01:37:42.439Z,22.37
2018-05-21T01:38:13.783Z,22.15
2018-05-21T01:38:45.122Z,25.02
2018-05-21T01:39:16.466Z,29.35
2018-05-21T01:39:47.821Z,19.92
2018-05-21T01:40:19.177Z,16.25
2018-05-21T01:40:50.516Z,12.90
2018-05-21T01:41:21.847Z,13.20
2018-05-21T01:41:53.187Z,12.20
2018-05-21T01:42:24.525Z,7.43
2018-05-21T01:42:55.871Z,12.37
2018-05-21T01:43:27.200Z,11.73
2018-05-21T01:43:58.535Z,14.23
2018-05-21T01:44:29.907Z,17.87
2018-05-21T01:45:02.033Z,15.13
2018-05-21T01:45:33.384Z,11.40
2018-05-21T01:46:04.723Z,8.35
2018-05-21T01:46:36.799Z,11.82
2018-05-21T01:47:08.875Z,10.38
2018-05-21T01:47:40.215Z,9.15
2018-05-21T01:48:11.555Z,12.85
2018-05-21T01:48:42.912Z,15.30
2018-05-21T01:49:14.253Z,12.32
2018-05-21T01:49:45.604Z,17.85
2018-05-21T01:50:18.460Z,18.80
2018-05-21T01:50:49.795Z,16.48
2018-05-21T01:51:21.146Z,19.17
2018-05-21T01:51:52.500Z,21.77
2018-05-21T01:52:23.846Z,15.63
2018-05-21T01:52:55.970Z,19.73
2018-05-21T01:53:27.311Z,14.80
2018-05-21T01:53:58.646Z,20.37
2018-05-21T01:54:29.984Z,23.02
2018-05-21T01:55:01.324Z,18.37
2018-05-21T01:55:32.689Z,30.85
2018-05-21T01:56:04.771Z,17.30
2018-05-21T01:56:36.106Z,16.98
2018-05-21T01:57:07.437Z,14.18
2018-05-21T01:57:38.806Z,14.50
2018-05-21T01:58:10.144Z,18.95
2018-05-21T01:58:41.507Z,19.87
2018-05-21T01:59:12.832Z,16.25
2018-05-21T01:59:44.195Z,24.42
2018-05-21T02:00:15.558Z,15.82
2018-05-21T02:00:47.675Z,17.30
2018-05-21T02:01:19.011Z,17.83
2018-05-21T02:01:50.356Z,15.18
2018-05-21T02:02:21.702Z,13.68
2018-05-21T02:02:53.807Z,19.23
2018-05-21T02:03:25.142Z,22.02
2018-05-21T02:03:56.491Z,10.32
2018-05-21T02:04:27.837Z,15.90
2018-05-21T02:04:59.179Z,12.25
2018-05-21T02:05:30.523Z,11.20
2018-05-21T02:06:01.899Z,15.80
2018-05-21T02:06:33.974Z,12.45
2018-05-21T02:07:05.347Z,17.58
2018-05-21T02:07:36.687Z,31.30
2018-05-21T02:08:08.016Z,19.25
2018-05-21T02:08:39.371Z,17.27
2018-05-21T02:09:10.711Z,20.17
2018-05-21T02:09:42.055Z,15.15
2018-05-21T02:10:13.395Z,16.98
2018-05-21T02:10:45.035Z,30.62
2018-05-21T02:11:16.387Z,17.25
2018-05-21T02:11:48.479Z,23.02
2018-05-21T02:12:19.823Z,25.50
2018-05-21T02:12:51.159Z,17.90
2018-05-21T02:13:22.502Z,15.25
2018-05-21T02:13:53.879Z,14.30
2018-05-21T02:14:26.698Z,16.02
2018-05-21T02:14:58.038Z,20.23
2018-05-21T02:15:29.375Z,13.27
2018-05-21T02:16:00.712Z,13.20
2018-05-21T02:16:32.076Z,9.65
2018-05-21T02:17:03.408Z,13.23
2018-05-21T02:17:34.763Z,13.95
2018-05-21T02:18:06.108Z,19.10
2018-05-21T02:18:37.455Z,19.98
2018-05-21T02:19:09.559Z,13.32
2018-05-21T02:19:40.902Z,14.63
2018-05-21T02:20:12.234Z,18.30
2018-05-21T02:20:43.592Z,13.77
2018-05-21T02:21:14.923Z,13.62
2018-05-21T02:21:46.291Z,18.02
2018-05-21T02:22:17.627Z,16.08
2018-05-21T02:22:48.975Z,24.05
2018-05-21T02:23:20.314Z,17.33
2018-05-21T02:23:51.647Z,20.65
2018-05-21T02:24:22.983Z,17.05
2018-05-21T02:24:54.331Z,22.00
2018-05-21T02:25:26.419Z,14.55
2018-05-21T02:25:57.787Z,19.83
2018-05-21T02:26:29.135Z,16.52
2018-05-21T02:27:00.596Z,20.40
2018-05-21T02:27:31.860Z,13.32
2018-05-21T02:28:03.209Z,12.77
2018-05-21T02:28:34.550Z,9.70
2018-05-21T02:29:05.895Z,15.80
2018-05-21T02:29:37.235Z,12.95
2018-05-21T02:30:08.572Z,11.98
2018-05-21T02:30:39.939Z,13.52
2018-05-21T02:31:11.271Z,13.48
2018-05-21T02:31:42.607Z,13.82
2018-05-21T02:32:13.980Z,15.35
2018-05-21T02:32:45.327Z,8.38
2018-05-21T02:33:16.679Z,11.07
2018-05-21T02:33:48.011Z,10.05
2018-05-21T02:34:19.351Z,5.85
2018-05-21T02:34:50.686Z,10.52
2018-05-21T02:35:22.051Z,6.82
2018-05-21T02:35:53.388Z,6.53
2018-05-21T02:36:24.720Z,8.98
2018-05-21T02:36:56.059Z,8.02
2018-05-21T02:37:27.415Z,8.07
2018-05-21T02:37:58.764Z,6.75
2018-05-21T02:38:30.111Z,6.50
2018-05-21T02:39:01.444Z,6.53
2018-05-21T02:39:32.823Z,6.05
2018-05-21T02:40:04.203Z,8.68
2018-05-21T02:40:35.539Z,5.30
2018-05-21T02:41:06.892Z,5.82
2018-05-21T02:41:38.993Z,5.70
2018-05-21T02:42:10.327Z,6.70
2018-05-21T02:42:41.686Z,4.68
2018-05-21T02:43:13.027Z,5.45
2018-05-21T02:43:44.383Z,6.53
2018-05-21T02:44:15.778Z,9.88
2018-05-21T02:44:47.843Z,12.95
2018-05-21T02:45:19.199Z,7.95
2018-05-21T02:45:50.545Z,12.35
2018-05-21T02:46:21.879Z,7.80
2018-05-21T02:46:53.214Z,6.87
2018-05-21T02:47:24.560Z,9.60
2018-05-21T02:47:55.931Z,15.13
2018-05-21T02:48:28.003Z,8.35
2018-05-21T02:48:59.351Z,6.43
2018-05-21T02:49:30.687Z,8.40
2018-05-21T02:50:02.023Z,7.85
2018-05-21T02:50:40.428Z,7.57
2018-05-21T02:51:11.780Z,8.38
2018-05-21T02:51:43.114Z,7.00
2018-05-21T02:52:14.459Z,9.88
2018-05-21T02:52:45.791Z,10.15
2018-05-21T02:53:17.230Z,8.65
2018-05-21T02:53:48.574Z,12.25
2018-05-21T02:54:19.927Z,17.00
2018-05-21T02:54:51.324Z,11.15
2018-05-21T02:55:22.678Z,14.15
2018-05-21T02:55:54.015Z,12.15
2018-05-21T02:56:25.362Z,9.55
2018-05-21T02:56:56.719Z,9.88
2018-05-21T02:57:28.052Z,8.77
2018-05-21T02:57:59.391Z,9.27
2018-05-21T02:58:30.756Z,10.30
2018-05-21T02:59:02.856Z,9.23
2018-05-21T02:59:34.182Z,11.52
2018-05-21T03:00:05.539Z,9.10
2018-05-21T03:00:36.871Z,7.18
2018-05-21T03:01:08.215Z,11.35
2018-05-21T03:01:39.573Z,9.82
2018-05-21T03:02:10.919Z,8.55
2018-05-21T03:02:42.259Z,8.85
2018-05-21T03:03:14.370Z,10.25
2018-05-21T03:03:45.727Z,11.82
2018-05-21T03:04:17.063Z,10.13
2018-05-21T03:04:48.398Z,12.07
2018-05-21T03:05:19.736Z,9.63
2018-05-21T03:05:51.075Z,24.42
2018-05-21T03:06:22.417Z,7.05
2018-05-21T03:06:53.756Z,5.40
2018-05-21T03:07:25.088Z,8.50
2018-05-21T03:07:56.436Z,8.27
2018-05-21T03:08:27.781Z,7.72
2018-05-21T03:08:59.907Z,8.77
2018-05-21T03:09:31.239Z,7.78
2018-05-21T03:10:02.602Z,13.68
2018-05-21T03:10:33.927Z,5.25
2018-05-21T03:11:05.288Z,8.73
2018-05-21T03:11:36.625Z,4.85
2018-05-21T03:12:07.948Z,7.47
2018-05-21T03:12:39.282Z,11.55
2018-05-21T03:13:10.611Z,12.48
2018-05-21T03:13:41.963Z,7.37
2018-05-21T03:14:13.320Z,7.15
2018-05-21T03:14:45.411Z,8.18
2018-05-21T03:15:16.742Z,10.32
2018-05-21T03:15:48.099Z,8.35
2018-05-21T03:16:19.426Z,10.57
2018-05-21T03:16:50.778Z,6.85
2018-05-21T03:17:22.111Z,10.40
2018-05-21T03:17:53.463Z,8.68
2018-05-21T03:18:24.799Z,8.48
2018-05-21T03:18:56.131Z,8.48
2018-05-21T03:19:27.486Z,10.82
2018-05-21T03:19:58.816Z,8.82
2018-05-21T03:20:30.150Z,11.55
2018-05-21T03:21:01.502Z,9.07
2018-05-21T03:21:32.834Z,17.15
2018-05-21T03:22:04.175Z,20.73
2018-05-21T03:22:35.503Z,15.88
2018-05-21T03:23:06.843Z,18.85
2018-05-21T03:23:38.167Z,16.90
2018-05-21T03:24:09.507Z,15.35
2018-05-21T03:24:40.867Z,15.05
2018-05-21T03:25:12.198Z,15.68
2018-05-21T03:25:44.275Z,12.15
2018-05-21T03:26:16.348Z,12.93
2018-05-21T03:26:47.683Z,9.20
2018-05-21T03:27:19.034Z,9.05
2018-05-21T03:27:50.362Z,10.57
2018-05-21T03:28:21.707Z,6.85
2018-05-21T03:28:53.035Z,9.30
2018-05-21T03:29:24.396Z,8.55
2018-05-21T03:29:55.751Z,12.85
2018-05-21T03:30:27.078Z,10.20
2018-05-21T03:30:58.421Z,13.13
2018-05-21T03:31:29.776Z,8.18
2018-05-21T03:32:01.118Z,8.18
2018-05-21T03:32:32.462Z,10.40
2018-05-21T03:33:04.567Z,13.45
2018-05-21T03:33:35.922Z,8.82
2018-05-21T03:34:07.259Z,8.15
2018-05-21T03:34:38.613Z,7.60
2018-05-21T03:35:10.003Z,13.02
2018-05-21T03:35:42.079Z,19.33
2018-05-21T03:36:13.410Z,17.40
2018-05-21T03:36:44.738Z,18.98
2018-05-21T03:37:16.090Z,20.92
2018-05-21T03:37:47.427Z,17.75
2018-05-21T03:38:18.759Z,11.50
2018-05-21T03:38:50.079Z,14.15
2018-05-21T03:39:21.424Z,21.77
2018-05-21T03:39:52.798Z,21.67
2018-05-21T03:40:24.158Z,18.02
2018-05-21T03:40:56.250Z,11.48
2018-05-21T03:41:27.578Z,8.52
2018-05-21T03:41:58.918Z,8.60
2018-05-21T03:42:30.255Z,14.40
2018-05-21T03:43:01.587Z,8.48
2018-05-21T03:43:32.931Z,8.32
2018-05-21T03:45:03.183Z,7.43
2018-05-21T03:45:34.547Z,5.87
2018-05-21T03:46:05.899Z,8.63
2018-05-21T03:46:37.226Z,7.40
2018-05-21T03:47:08.563Z,11.45
2018-05-21T03:47:39.899Z,11.50
2018-05-21T03:48:11.239Z,9.20
2018-05-21T03:48:42.579Z,7.30
2018-05-21T03:49:13.906Z,15.60
2018-05-21T03:49:45.243Z,10.43
2018-05-21T03:50:16.571Z,14.98
2018-05-21T03:50:47.942Z,16.25
2018-05-21T03:51:20.014Z,14.07
2018-05-21T03:51:51.348Z,26.70
2018-05-21T03:52:22.700Z,25.50
2018-05-21T03:52:54.035Z,20.73
2018-05-21T03:53:25.403Z,26.45
2018-05-21T03:53:56.751Z,24.90
2018-05-21T03:54:28.082Z,21.87
2018-05-21T03:54:59.410Z,18.33
2018-05-21T03:55:30.810Z,23.38
2018-05-21T03:56:02.135Z,15.65
2018-05-21T03:56:34.203Z,17.90
2018-05-21T03:57:05.583Z,15.45
2018-05-21T03:57:36.886Z,11.77
2018-05-21T03:58:20.502Z,7.93
2018-05-21T03:59:04.279Z,7.20
2018-05-21T03:59:47.983Z,10.95
2018-05-21T04:00:32.431Z,6.03
2018-05-21T04:01:16.983Z,9.60
2018-05-21T04:02:01.425Z,7.00
2018-05-21T04:02:45.142Z,7.35
2018-05-21T04:03:29.590Z,10.45
2018-05-21T04:04:00.970Z,8.30
2018-05-21T04:04:33.113Z,17.35
2018-05-21T04:05:04.455Z,22.20
2018-05-21T04:05:35.783Z,24.60
2018-05-21T04:06:07.131Z,18.73
2018-05-21T04:06:38.548Z,14.20
2018-05-21T04:07:09.891Z,14.80
2018-05-21T04:07:41.238Z,10.50
2018-05-21T04:08:12.586Z,12.85
2018-05-21T04:08:43.926Z,15.48
2018-05-21T04:09:16.022Z,13.77
2018-05-21T04:09:47.382Z,15.40
2018-05-21T04:10:18.714Z,16.48
2018-05-21T04:10:50.071Z,9.02
2018-05-21T04:11:21.440Z,11.63
2018-05-21T04:11:53.662Z,14.65
2018-05-21T04:12:24.927Z,11.32
2018-05-21T04:12:57.019Z,9.10
2018-05-21T04:13:28.366Z,9.77
2018-05-21T04:13:59.735Z,11.38
2018-05-21T04:14:31.087Z,8.48
2018-05-21T04:15:02.456Z,12.32
2018-05-21T04:15:34.531Z,15.52
2018-05-21T04:16:05.875Z,18.23
2018-05-21T04:16:37.243Z,12.60
2018-05-21T04:17:09.367Z,9.70
2018-05-21T04:17:40.727Z,12.63
2018-05-21T04:18:12.073Z,18.55
2018-05-21T04:18:43.459Z,12.10
2018-05-21T04:19:14.804Z,14.45
2018-05-21T04:19:46.158Z,8.95
2018-05-21T04:20:17.503Z,8.48
2018-05-21T04:20:48.834Z,8.90
2018-05-21T04:21:20.159Z,11.12
2018-05-21T04:21:51.494Z,7.62
2018-05-21T04:22:22.856Z,7.43
2018-05-21T04:22:54.198Z,8.68
2018-05-21T04:23:25.539Z,5.35
2018-05-21T04:23:56.871Z,8.45
2018-05-21T04:24:28.199Z,5.30
2018-05-21T04:24:59.538Z,6.60
2018-05-21T04:25:30.877Z,4.47
2018-05-21T04:26:02.241Z,11.18
2018-05-21T04:26:33.571Z,6.80
2018-05-21T04:27:04.912Z,7.12
2018-05-21T04:27:36.279Z,6.87
2018-05-21T04:28:08.371Z,5.60
2018-05-21T04:28:39.702Z,6.40
2018-05-21T04:29:11.044Z,4.50
2018-05-21T04:29:42.398Z,6.70
2018-05-21T04:30:13.740Z,4.37
2018-05-21T04:30:45.090Z,6.28
2018-05-21T04:31:16.434Z,12.65
2018-05-21T04:31:47.763Z,5.32
2018-05-21T04:32:19.123Z,10.50
2018-05-21T04:32:50.479Z,5.80
2018-05-21T04:33:21.816Z,6.03
2018-05-21T04:33:53.890Z,5.62
2018-05-21T04:34:25.219Z,5.65
2018-05-21T04:34:56.562Z,5.12
2018-05-21T04:35:27.898Z,11.00
2018-05-21T04:35:59.252Z,4.20
2018-05-21T04:36:30.616Z,6.57
2018-05-21T04:37:01.944Z,6.20
2018-05-21T04:37:33.278Z,11.75
2018-05-21T04:38:04.647Z,10.57
2018-05-21T04:38:35.987Z,8.05
2018-05-21T04:39:07.316Z,6.15
2018-05-21T04:39:39.398Z,5.85
2018-05-21T04:40:11.479Z,5.10
2018-05-21T04:40:42.832Z,7.22
2018-05-21T04:41:14.175Z,7.82
2018-05-21T04:41:45.523Z,5.07
2018-05-21T04:42:16.851Z,7.45
2018-05-21T04:42:48.179Z,5.30
2018-05-21T04:43:19.543Z,6.37
2018-05-21T04:43:50.876Z,4.70
2018-05-21T04:44:22.987Z,13.62
2018-05-21T04:44:54.367Z,6.95
2018-05-21T04:45:25.715Z,9.98
2018-05-21T04:45:57.819Z,5.65
2018-05-21T04:46:29.159Z,5.28
2018-05-21T04:47:00.499Z,8.82
2018-05-21T04:47:31.839Z,9.32
2018-05-21T04:48:03.189Z,6.10
2018-05-21T04:48:34.571Z,6.95
2018-05-21T04:49:06.652Z,5.97
2018-05-21T04:49:37.994Z,8.20
2018-05-21T04:50:09.347Z,8.88
2018-05-21T04:50:40.700Z,7.35
2018-05-21T04:51:12.032Z,6.45
2018-05-21T04:51:43.367Z,4.10
2018-05-21T04:52:14.704Z,4.47
2018-05-21T04:52:46.043Z,3.95
2018-05-21T04:53:17.383Z,6.12
2018-05-21T04:53:48.775Z,5.18
2018-05-21T04:54:20.855Z,6.87
2018-05-21T04:54:52.188Z,6.78
2018-05-21T04:55:23.523Z,5.28
2018-05-21T04:55:54.856Z,7.15
2018-05-21T04:56:26.203Z,7.05
2018-05-21T04:56:57.548Z,5.80
2018-05-21T04:57:28.909Z,11.27
2018-05-21T04:58:00.239Z,10.73
2018-05-21T04:58:31.576Z,4.95
2018-05-21T04:59:02.959Z,7.80
2018-05-21T04:59:34.317Z,5.35
2018-05-21T05:00:05.676Z,4.70
2018-05-21T05:00:37.019Z,6.72
2018-05-21T05:01:08.355Z,5.68
2018-05-21T05:01:39.708Z,6.43
2018-05-21T05:02:11.052Z,5.05
2018-05-21T05:02:42.399Z,5.47
2018-05-21T05:03:13.735Z,5.15
2018-05-21T05:03:45.078Z,12.77
2018-05-21T05:04:16.434Z,12.82
2018-05-21T05:04:47.771Z,5.75
2018-05-21T05:05:19.868Z,8.13
2018-05-21T05:05:51.224Z,5.55
2018-05-21T05:06:22.558Z,9.18
2018-05-21T05:06:53.911Z,5.93
2018-05-21T05:07:26.723Z,4.68
2018-05-21T05:07:58.063Z,9.25
2018-05-21T05:08:29.411Z,6.00
2018-05-21T05:09:00.752Z,7.60
2018-05-21T05:09:32.115Z,8.23
2018-05-21T05:10:03.467Z,6.68
2018-05-21T05:10:34.810Z,6.87
2018-05-21T05:11:06.143Z,7.45
2018-05-21T05:11:37.467Z,5.82
2018-05-21T05:12:08.799Z,5.12
2018-05-21T05:12:40.139Z,5.80
2018-05-21T05:13:11.484Z,5.25
2018-05-21T05:13:42.827Z,7.22
2018-05-21T05:14:15.659Z,5.40
2018-05-21T05:14:47.027Z,8.27
2018-05-21T05:15:18.359Z,5.82
2018-05-21T05:15:49.690Z,4.07
2018-05-21T05:16:21.027Z,5.28
2018-05-21T05:16:52.367Z,5.85
2018-05-21T05:17:23.711Z,5.12
2018-05-21T05:17:55.048Z,4.10
2018-05-21T05:18:26.380Z,9.73
2018-05-21T05:18:57.731Z,8.68
2018-05-21T05:19:30.559Z,5.95
2018-05-21T05:20:01.927Z,6.47
2018-05-21T05:20:33.280Z,5.18
2018-05-21T05:21:04.647Z,7.03
2018-05-21T05:21:35.991Z,4.22
2018-05-21T05:22:07.367Z,4.87
2018-05-21T05:22:38.716Z,4.18
2018-05-21T05:23:10.056Z,5.62
2018-05-21T05:23:41.402Z,4.37
2018-05-21T05:24:12.735Z,3.87
2018-05-21T05:24:44.076Z,7.35
2018-05-21T05:25:15.439Z,7.75
2018-05-21T05:25:47.539Z,4.30
2018-05-21T05:26:18.915Z,5.15
2018-05-21T05:26:50.252Z,6.50
2018-05-21T05:27:21.591Z,9.05
2018-05-21T05:27:52.935Z,5.03
2018-05-21T05:28:24.306Z,5.62
2018-05-21T05:28:55.639Z,5.00
2018-05-21T05:29:26.979Z,8.20
2018-05-21T05:29:58.328Z,4.03
2018-05-21T05:30:29.683Z,3.97
2018-05-21T05:31:01.018Z,7.15
2018-05-21T05:31:32.354Z,6.05
2018-05-21T05:32:03.719Z,7.95
2018-05-21T05:32:35.059Z,3.08
2018-05-21T05:33:06.403Z,5.68
2018-05-21T05:33:37.744Z,5.47
2018-05-21T05:34:09.832Z,4.40
2018-05-21T05:34:41.185Z,7.97
2018-05-21T05:35:12.523Z,6.95
2018-05-21T05:35:43.882Z,4.25
2018-05-21T05:36:15.219Z,11.02
2018-05-21T05:36:46.551Z,4.80
2018-05-21T05:37:17.918Z,4.37
2018-05-21T05:37:49.252Z,5.22
2018-05-21T05:38:20.595Z,6.55
2018-05-21T05:38:51.936Z,4.65
2018-05-21T05:39:24.007Z,4.97
2018-05-21T05:39:56.080Z,6.57
2018-05-21T05:40:27.424Z,4.75
2018-05-21T05:40:58.782Z,4.68
2018-05-21T05:41:30.132Z,6.93
2018-05-21T05:42:01.528Z,4.05
2018-05-21T05:42:33.599Z,5.30
2018-05-21T05:43:04.954Z,4.37
2018-05-21T05:43:36.283Z,4.85
2018-05-21T05:44:07.626Z,4.45
2018-05-21T05:44:38.982Z,4.07
2018-05-21T05:45:10.332Z,3.70
2018-05-21T05:45:41.667Z,5.12
2018-05-21T05:46:13.794Z,4.75
2018-05-21T05:46:46.631Z,3.80
2018-05-21T05:47:17.971Z,5.10
2018-05-21T05:47:49.315Z,4.05
2018-05-21T05:48:20.650Z,3.62
2018-05-21T05:48:52.088Z,4.85
2018-05-21T05:49:23.351Z,6.22
2018-05-21T05:49:54.680Z,4.18
2018-05-21T05:50:26.011Z,10.77
2018-05-21T05:50:57.351Z,6.20
2018-05-21T05:51:28.719Z,3.95
2018-05-21T05:52:00.055Z,6.50
2018-05-21T05:52:31.398Z,7.25
2018-05-21T05:53:02.751Z,5.75
2018-05-21T05:53:34.087Z,5.00
2018-05-21T05:54:06.227Z,4.95
2018-05-21T05:54:37.563Z,6.40
2018-05-21T05:55:08.890Z,3.75
2018-05-21T05:55:40.994Z,6.10
2018-05-21T05:56:12.343Z,4.68
2018-05-21T05:56:43.715Z,7.28
2018-05-21T05:57:15.047Z,5.15
2018-05-21T05:57:46.379Z,4.47
2018-05-21T05:58:17.716Z,7.72
2018-05-21T05:58:49.065Z,4.37
2018-05-21T05:59:20.415Z,11.00
2018-05-21T05:59:51.753Z,7.20
2018-05-21T06:00:23.091Z,7.00
2018-05-21T06:00:54.466Z,5.32
2018-05-21T06:01:25.802Z,4.72
2018-05-21T06:01:57.172Z,7.95
2018-05-21T06:02:28.502Z,4.82
2018-05-21T06:02:59.849Z,5.90
2018-05-21T06:03:31.233Z,4.85
2018-05-21T06:04:02.622Z,8.98
2018-05-21T06:04:33.984Z,5.05
2018-05-21T06:05:05.347Z,4.72
2018-05-21T06:05:37.431Z,5.12
2018-05-21T06:06:08.771Z,6.10
2018-05-21T06:06:40.123Z,4.28
2018-05-21T06:07:11.492Z,5.65
2018-05-21T06:07:42.835Z,8.85
2018-05-21T06:08:14.176Z,3.58
2018-05-21T06:08:46.271Z,5.82
2018-05-21T06:09:17.606Z,4.35
2018-05-21T06:09:48.963Z,5.00
2018-05-21T06:10:20.307Z,9.75
2018-05-21T06:10:51.665Z,7.20
2018-05-21T06:11:23.000Z,6.22
2018-05-21T06:11:54.331Z,7.43
2018-05-21T06:12:25.699Z,5.45
2018-05-21T06:12:57.792Z,8.85
2018-05-21T06:13:29.131Z,7.00
2018-05-21T06:14:00.480Z,4.25
2018-05-21T06:14:31.846Z,7.50
2018-05-21T06:15:03.227Z,5.68
2018-05-21T06:15:34.610Z,8.88
2018-05-21T06:16:05.967Z,5.85
2018-05-21T06:16:37.312Z,4.75
2018-05-21T06:17:09.399Z,9.88
2018-05-21T06:17:40.787Z,5.47
2018-05-21T06:18:12.143Z,5.43
2018-05-21T06:18:43.483Z,6.30
2018-05-21T06:19:14.819Z,4.85
2018-05-21T06:19:46.899Z,6.37
2018-05-21T06:20:18.269Z,6.05
2018-05-21T06:20:49.619Z,5.68
2018-05-21T06:21:20.962Z,4.65
2018-05-21T06:21:53.077Z,10.02
2018-05-21T06:22:24.504Z,6.68
2018-05-21T06:22:55.838Z,8.15
2018-05-21T06:23:27.212Z,3.97
2018-05-21T06:23:58.579Z,5.62
2018-05-21T06:24:29.932Z,5.80
2018-05-21T06:25:02.020Z,5.65
2018-05-21T06:25:33.385Z,4.68
2018-05-21T06:26:04.740Z,5.85
2018-05-21T06:26:36.089Z,3.45
2018-05-21T06:27:07.439Z,8.57
2018-05-21T06:27:39.526Z,8.15
2018-05-21T06:28:10.904Z,4.72
2018-05-21T06:28:42.251Z,6.57
2018-05-21T06:29:15.067Z,7.93
2018-05-21T06:29:46.419Z,10.65
2018-05-21T06:30:17.769Z,4.03
2018-05-21T06:30:49.120Z,3.80
2018-05-21T06:31:20.463Z,4.80
2018-05-21T06:31:51.807Z,4.28
2018-05-21T06:32:23.159Z,7.45
2018-05-21T06:32:54.499Z,4.50
2018-05-21T06:33:26.611Z,5.47
2018-05-21T06:33:57.996Z,7.45
2018-05-21T06:34:29.359Z,13.82
2018-05-21T06:35:01.434Z,3.87
2018-05-21T06:35:32.780Z,6.12
2018-05-21T06:36:04.127Z,5.78
2018-05-21T06:36:35.501Z,5.07
2018-05-21T06:37:07.590Z,5.45
2018-05-21T06:37:38.931Z,4.15
2018-05-21T06:38:10.289Z,4.10
2018-05-21T06:38:41.667Z,7.15
2018-05-21T06:39:13.747Z,6.12
2018-05-21T06:39:45.079Z,3.83
2018-05-21T06:40:16.415Z,5.25
2018-05-21T06:40:47.759Z,4.35
2018-05-21T06:41:19.115Z,3.53
2018-05-21T06:41:50.457Z,4.12
2018-05-21T06:42:21.803Z,4.40
2018-05-21T06:42:53.142Z,3.45
2018-05-21T06:43:25.259Z,5.00
2018-05-21T06:43:56.623Z,5.22
2018-05-21T06:44:27.983Z,5.05
2018-05-21T06:44:59.335Z,4.55
2018-05-21T06:45:30.672Z,5.28
2018-05-21T06:46:02.015Z,5.65
2018-05-21T06:46:33.351Z,4.25
2018-05-21T06:47:04.690Z,6.03
2018-05-21T06:47:36.803Z,10.13
2018-05-21T06:48:08.144Z,6.53
2018-05-21T06:48:39.487Z,4.35
2018-05-21T06:49:10.855Z,5.55
2018-05-21T06:49:42.191Z,4.80
2018-05-21T06:50:14.300Z,4.40
2018-05-21T06:50:45.631Z,3.65
2018-05-21T06:51:16.979Z,7.72
2018-05-21T06:51:48.352Z,3.03
2018-05-21T06:52:20.442Z,5.43
2018-05-21T06:52:51.791Z,7.12
2018-05-21T06:53:23.127Z,5.75
2018-05-21T06:53:54.463Z,6.35
2018-05-21T06:54:25.871Z,3.70
2018-05-21T06:54:57.959Z,5.15
2018-05-21T06:55:29.303Z,4.68
2018-05-21T06:56:00.667Z,4.75
2018-05-21T06:56:32.019Z,4.45